createdAt,value
2018-11-11T00:00:11.780Z,101348.35
2018-11-11T00:02:40.670Z,101344.31
2018-11-11T00:05:10.632Z,101348.35
2018-11-11T00:07:39.705Z,101349.70
2018-11-11T00:10:08.648Z,101351.53
2018-11-11T00:12:37.794Z,101360.47
2018-11-11T00:15:08.380Z,101366.34
2018-11-11T00:17:37.223Z,101363.64
2018-11-11T00:20:07.175Z,101362.78
2018-11-11T00:22:36.049Z,101359.61
2018-11-11T00:25:05.219Z,101368.03
2018-11-11T00:27:34.265Z,101356.43
2018-11-11T00:30:03.076Z,101365.85
2018-11-11T00:32:31.928Z,101364.12
2018-11-11T00:35:00.721Z,101367.69
2018-11-11T00:37:29.617Z,101363.16
2018-11-11T00:39:58.380Z,101358.27
2018-11-11T00:42:27.179Z,101363.64
2018-11-11T00:44:55.969Z,101356.91
2018-11-11T00:47:24.722Z,101355.91
2018-11-11T00:49:53.496Z,101352.02
2018-11-11T00:52:22.288Z,101348.11
2018-11-11T00:54:51.115Z,101349.80
2018-11-11T00:57:19.975Z,101349.32
2018-11-11T01:02:16.573Z,101348.59
2018-11-11T01:04:45.339Z,101341.86
2018-11-11T01:07:14.345Z,101340.52
2018-11-11T01:09:43.089Z,101339.27
2018-11-11T01:12:11.916Z,101335.61
2018-11-11T01:14:40.732Z,101345.52
2018-11-11T01:17:10.037Z,101343.31
2018-11-11T01:19:38.830Z,101352.73
2018-11-11T01:22:07.726Z,101349.20
2018-11-11T01:24:36.449Z,101356.28
2018-11-11T01:27:05.291Z,101348.69
2018-11-11T01:29:33.981Z,101355.94
2018-11-11T01:32:02.725Z,101347.00
2018-11-11T01:34:31.564Z,101347.86
2018-11-11T01:37:00.344Z,101348.34
2018-11-11T01:39:29.131Z,101346.62
2018-11-11T01:41:57.897Z,101341.62
2018-11-11T01:44:26.777Z,101336.23
2018-11-11T01:46:55.535Z,101339.41
2018-11-11T01:49:24.289Z,101335.85
2018-11-11T01:51:53.058Z,101345.27
2018-11-11T01:54:21.800Z,101344.41
2018-11-11T01:56:50.578Z,101342.23
2018-11-11T01:59:19.386Z,101344.41
2018-11-11T02:01:48.202Z,101333.64
2018-11-11T02:04:16.948Z,101339.89
2018-11-11T02:06:45.688Z,101336.33
2018-11-11T02:09:14.578Z,101337.67
2018-11-11T02:11:43.380Z,101331.47
2018-11-11T02:14:12.126Z,101330.12
2018-11-11T02:16:40.901Z,101334.64
2018-11-11T02:19:09.645Z,101331.81
2018-11-11T02:21:38.581Z,101342.23
2018-11-11T02:24:07.274Z,101344.92
2018-11-11T02:26:36.035Z,101339.54
2018-11-11T02:29:05.042Z,101332.91
2018-11-11T02:31:33.793Z,101335.98
2018-11-11T02:34:02.606Z,101331.56
2018-11-11T02:36:31.362Z,101327.05
2018-11-11T02:39:00.106Z,101322.52
2018-11-11T02:41:28.813Z,101321.17
2018-11-11T02:43:57.534Z,101316.28
2018-11-11T02:46:26.341Z,101323.39
2018-11-11T02:48:55.090Z,101324.73
2018-11-11T02:51:23.809Z,101326.08
2018-11-11T02:53:52.577Z,101322.14
2018-11-11T02:56:21.276Z,101323.88
2018-11-11T02:58:50.066Z,101315.31
2018-11-11T03:01:18.828Z,101314.94
2018-11-11T03:03:47.512Z,101313.59
2018-11-11T03:06:16.277Z,101315.41
2018-11-11T03:08:45.078Z,101311.51
2018-11-11T03:11:13.838Z,101317.24
2018-11-11T03:13:42.604Z,101323.97
2018-11-11T03:16:11.313Z,101326.18
2018-11-11T03:18:40.118Z,101326.18
2018-11-11T03:21:08.930Z,101325.31
2018-11-11T03:23:37.675Z,101316.76
2018-11-11T03:26:06.796Z,101319.11
2018-11-11T03:28:35.564Z,101319.59
2018-11-11T03:31:04.458Z,101328.87
2018-11-11T03:33:33.211Z,101326.31
2018-11-11T03:36:01.942Z,101329.36
2018-11-11T03:38:30.991Z,101329.73
2018-11-11T03:40:59.838Z,101323.14
2018-11-11T03:43:28.549Z,101317.24
2018-11-11T03:45:57.314Z,101308.69
2018-11-11T03:48:26.026Z,101305.13
2018-11-11T03:50:54.818Z,101298.91
2018-11-11T03:53:23.694Z,101302.09
2018-11-11T03:55:52.444Z,101308.34
2018-11-11T03:58:21.216Z,101315.06
2018-11-11T04:00:49.969Z,101316.89
2018-11-11T04:03:18.765Z,101311.86
2018-11-11T04:05:47.529Z,101309.69
2018-11-11T04:08:16.334Z,101311.86
2018-11-11T04:10:45.150Z,101317.38
2018-11-11T04:13:13.848Z,101311.13
2018-11-11T04:15:42.603Z,101312.86
2018-11-11T04:18:11.387Z,101315.55
2018-11-11T04:20:40.185Z,101314.20
2018-11-11T04:23:08.939Z,101315.55
2018-11-11T04:25:37.760Z,101319.20
2018-11-11T04:28:06.586Z,101315.55
2018-11-11T04:30:35.417Z,101319.94
2018-11-11T04:33:04.156Z,101312.38
2018-11-11T04:35:32.979Z,101311.99
2018-11-11T04:38:01.864Z,101315.55
2018-11-11T04:40:30.600Z,101315.17
2018-11-11T04:42:59.354Z,101321.80
2018-11-11T04:45:28.119Z,101319.59
2018-11-11T04:47:56.926Z,101322.63
2018-11-11T04:50:25.727Z,101325.31
2018-11-11T04:52:54.528Z,101323.49
2018-11-11T04:55:23.307Z,101320.31
2018-11-11T04:57:52.012Z,101309.06
2018-11-11T05:00:20.776Z,101315.80
2018-11-11T05:02:49.524Z,101313.97
2018-11-11T05:05:18.273Z,101315.31
2018-11-11T05:07:47.045Z,101312.62
2018-11-11T05:10:15.985Z,101320.70
2018-11-11T05:12:44.712Z,101316.66
2018-11-11T05:15:14.391Z,101312.62
2018-11-11T05:17:43.794Z,101314.45
2018-11-11T05:20:13.522Z,101317.48
2018-11-11T05:22:42.816Z,101320.18
2018-11-11T05:25:12.749Z,101318.84
2018-11-11T05:27:41.800Z,101316.66
2018-11-11T05:30:11.826Z,101313.97
2018-11-11T05:32:40.813Z,101320.18
2018-11-11T05:35:10.690Z,101312.97
2018-11-11T05:37:39.844Z,101313.10
2018-11-11T05:40:09.644Z,101317.00
2018-11-11T05:42:38.381Z,101317.00
2018-11-11T05:45:08.449Z,101305.38
2018-11-11T05:47:37.263Z,101307.72
2018-11-11T05:50:07.340Z,101309.93
2018-11-11T05:52:36.061Z,101310.41
2018-11-11T05:55:05.005Z,101314.45
2018-11-11T05:57:33.720Z,101307.72
2018-11-11T06:00:02.576Z,101310.41
2018-11-11T06:02:31.383Z,101317.14
2018-11-11T06:05:00.164Z,101313.59
2018-11-11T06:07:28.915Z,101315.31
2018-11-11T06:09:57.741Z,101316.28
2018-11-11T06:12:26.440Z,101320.31
2018-11-11T06:14:55.162Z,101322.63
2018-11-11T06:17:23.927Z,101317.63
2018-11-11T06:19:52.762Z,101316.76
2018-11-11T06:22:22.351Z,101307.82
2018-11-11T06:24:51.737Z,101309.17
2018-11-11T06:27:21.617Z,101315.41
2018-11-11T06:29:50.424Z,101309.69
2018-11-11T06:32:19.209Z,101315.89
2018-11-11T06:34:47.999Z,101317.76
2018-11-11T06:37:16.757Z,101322.63
2018-11-11T06:39:45.565Z,101320.94
2018-11-11T06:42:14.276Z,101317.76
2018-11-11T06:44:43.064Z,101320.45
2018-11-11T06:47:11.864Z,101311.03
2018-11-11T06:49:40.625Z,101314.69
2018-11-11T06:52:09.361Z,101309.69
2018-11-11T06:54:38.114Z,101316.76
2018-11-11T06:57:06.896Z,101313.72
2018-11-11T06:59:35.676Z,101312.86
2018-11-11T07:02:04.462Z,101316.41
2018-11-11T07:04:33.190Z,101312.38
2018-11-11T07:07:01.979Z,101311.99
2018-11-11T07:09:30.688Z,101316.89
2018-11-11T07:11:59.458Z,101313.72
2018-11-11T07:14:28.247Z,101308.82
2018-11-11T07:16:57.024Z,101319.59
2018-11-11T07:19:25.878Z,101313.34
2018-11-11T07:21:54.558Z,101309.30
2018-11-11T07:24:23.375Z,101313.34
2018-11-11T07:26:52.140Z,101310.65
2018-11-11T07:29:20.952Z,101309.44
2018-11-11T07:31:49.820Z,101307.09
2018-11-11T07:34:18.565Z,101305.75
2018-11-11T07:36:47.832Z,101310.27
2018-11-11T07:39:17.163Z,101317.00
2018-11-11T07:41:45.933Z,101310.78
2018-11-11T07:44:14.690Z,101313.83
2018-11-11T07:46:43.494Z,101312.48
2018-11-11T07:49:12.227Z,101307.47
2018-11-11T07:51:41.039Z,101309.30
2018-11-11T07:54:09.882Z,101297.67
2018-11-11T07:56:38.628Z,101293.63
2018-11-11T07:59:07.468Z,101298.16
2018-11-11T08:01:36.288Z,101297.33
2018-11-11T08:04:05.230Z,101292.77
2018-11-11T08:06:33.960Z,101296.33
2018-11-11T08:09:02.713Z,101294.63
2018-11-11T08:11:42.649Z,101295.98
2018-11-11T08:14:11.380Z,101294.63
2018-11-11T08:16:40.230Z,101295.11
2018-11-11T08:19:08.978Z,101298.77
2018-11-11T08:21:37.701Z,101295.11
2018-11-11T08:24:06.826Z,101296.46
2018-11-11T08:26:35.562Z,101295.98
2018-11-11T08:29:05.269Z,101298.29
2018-11-11T08:31:34.010Z,101296.95
2018-11-11T08:34:02.784Z,101298.29
2018-11-11T08:36:31.598Z,101297.81
2018-11-11T08:39:00.817Z,101306.37
2018-11-11T08:41:29.643Z,101309.44
2018-11-11T08:43:58.415Z,101308.58
2018-11-11T08:46:27.159Z,101309.06
2018-11-11T08:48:55.942Z,101310.27
2018-11-11T08:51:24.705Z,101311.27
2018-11-11T08:53:53.489Z,101303.19
2018-11-11T08:56:22.243Z,101312.13
2018-11-11T08:58:51.011Z,101308.09
2018-11-11T09:01:19.761Z,101316.52
2018-11-11T09:03:48.495Z,101312.13
2018-11-11T09:06:17.218Z,101315.65
2018-11-11T09:08:46.084Z,101313.83
2018-11-11T09:11:14.964Z,101308.44
2018-11-11T09:13:43.738Z,101305.27
2018-11-11T09:16:12.547Z,101308.82
2018-11-11T09:18:41.458Z,101301.61
2018-11-11T09:21:10.208Z,101299.27
2018-11-11T09:23:38.974Z,101307.34
2018-11-11T09:26:07.791Z,101305.52
2018-11-11T09:28:36.622Z,101300.61
2018-11-11T09:31:06.440Z,101300.50
2018-11-11T09:33:35.268Z,101300.50
2018-11-11T09:36:04.051Z,101290.22
2018-11-11T09:38:32.831Z,101290.08
2018-11-11T09:41:01.670Z,101294.13
2018-11-11T09:43:30.404Z,101294.50
2018-11-11T09:45:59.160Z,101294.98
2018-11-11T09:48:28.010Z,101285.56
2018-11-11T09:50:56.729Z,101281.04
2018-11-11T09:53:25.940Z,101279.22
2018-11-11T09:55:54.902Z,101285.56
2018-11-11T09:58:23.744Z,101287.16
2018-11-11T10:00:52.581Z,101284.95
2018-11-11T10:03:39.872Z,101289.36
2018-11-11T10:06:16.864Z,101283.50
2018-11-11T10:08:51.428Z,101284.70
2018-11-11T10:12:23.328Z,101287.40
2018-11-11T10:15:28.631Z,101286.05
2018-11-11T10:18:02.139Z,101288.37
2018-11-11T10:20:37.790Z,101290.23
2018-11-11T10:23:14.068Z,101291.44
2018-11-11T10:25:53.746Z,101289.61
2018-11-11T10:28:26.598Z,101289.47
2018-11-11T10:32:00.506Z,101293.89
2018-11-11T10:35:34.053Z,101293.03
2018-11-11T10:38:14.039Z,101296.69
2018-11-11T10:40:46.938Z,101299.38
2018-11-11T10:43:29.827Z,101288.13
2018-11-11T10:46:03.616Z,101290.20
2018-11-11T10:48:35.629Z,101291.92
2018-11-11T10:51:05.608Z,101287.78
2018-11-11T10:53:34.414Z,101288.64
2018-11-11T10:56:03.192Z,101291.72
2018-11-11T10:58:31.948Z,101291.09
2018-11-11T11:01:06.111Z,101284.74
2018-11-11T11:03:36.320Z,101292.69
2018-11-11T11:06:06.617Z,101290.85
2018-11-11T11:08:35.561Z,101294.89
2018-11-11T11:11:04.893Z,101295.27
2018-11-11T11:13:33.925Z,101290.72
2018-11-11T11:16:03.218Z,101286.09
2018-11-11T11:18:31.923Z,101286.92
2018-11-11T11:21:00.649Z,101291.34
2018-11-11T11:23:29.480Z,101284.98
2018-11-11T11:25:58.207Z,101283.63
2018-11-11T11:28:27.018Z,101279.08
2018-11-11T11:30:55.758Z,101274.94
2018-11-11T11:33:24.544Z,101281.53
2018-11-11T11:35:53.542Z,101283.73
2018-11-11T11:38:22.378Z,101284.12
2018-11-11T11:40:51.100Z,101285.46
2018-11-11T11:43:19.820Z,101287.64
2018-11-11T11:45:49.241Z,101284.84
2018-11-11T11:48:18.026Z,101285.22
2018-11-11T11:50:46.818Z,101282.14
2018-11-11T11:53:15.663Z,101282.01
2018-11-11T11:55:44.502Z,101282.88
2018-11-11T11:58:26.349Z,101277.37
2018-11-11T12:00:55.206Z,101270.64
2018-11-11T12:03:24.023Z,101270.50
2018-11-11T12:05:52.857Z,101262.42
2018-11-11T12:08:21.661Z,101266.84
2018-11-11T12:10:50.446Z,101269.88
2018-11-11T12:13:19.691Z,101264.14
2018-11-11T12:15:48.487Z,101263.63
2018-11-11T12:18:17.285Z,101254.83
2018-11-11T12:20:46.242Z,101264.38
2018-11-11T12:23:15.107Z,101270.98
2018-11-11T12:25:43.866Z,101263.38
2018-11-11T12:28:12.803Z,101268.28
2018-11-11T12:30:41.745Z,101272.70
2018-11-11T12:33:10.525Z,101279.92
2018-11-11T12:35:39.488Z,101278.44
2018-11-11T12:38:08.427Z,101278.44
2018-11-11T12:40:37.373Z,101269.88
2018-11-11T12:43:06.184Z,101277.47
2018-11-11T12:45:35.046Z,101274.77
2018-11-11T12:48:03.829Z,101280.16
2018-11-11T12:50:32.680Z,101270.73
2018-11-11T12:53:01.507Z,101262.16
2018-11-11T12:55:30.399Z,101262.65
2018-11-11T12:57:59.277Z,101270.73
2018-11-11T13:00:28.401Z,101270.59
2018-11-11T13:02:57.207Z,101264.00
2018-11-11T13:05:25.998Z,101261.65
2018-11-11T13:07:54.887Z,101257.98
2018-11-11T13:10:23.821Z,101258.47
2018-11-11T13:12:52.606Z,101257.13
2018-11-11T13:15:21.442Z,101258.47
2018-11-11T13:17:50.379Z,101253.94
2018-11-11T13:20:20.063Z,101254.43
2018-11-11T13:22:48.908Z,101259.33
2018-11-11T13:25:17.675Z,101260.30
2018-11-11T13:27:46.860Z,101264.34
2018-11-11T13:30:15.983Z,101261.30
2018-11-11T13:32:45.130Z,101273.77
2018-11-11T13:35:15.379Z,101271.59
2018-11-11T13:37:44.316Z,101273.77
2018-11-11T13:40:19.881Z,101272.32
2018-11-11T13:42:48.820Z,101278.57
2018-11-11T13:45:20.198Z,101281.98
2018-11-11T13:47:49.714Z,101284.68
2018-11-11T13:50:20.084Z,101282.36
2018-11-11T13:52:49.245Z,101288.09
2018-11-11T13:55:18.812Z,101288.96
2018-11-11T13:57:48.104Z,101283.09
2018-11-11T14:00:27.149Z,101286.64
2018-11-11T14:02:56.193Z,101288.34
2018-11-11T14:05:25.011Z,101292.27
2018-11-11T14:07:53.836Z,101281.36
2018-11-11T14:10:22.644Z,101275.59
2018-11-11T14:12:51.439Z,101278.17
2018-11-11T14:15:21.700Z,101271.92
2018-11-11T14:17:50.716Z,101288.95
2018-11-11T14:20:20.880Z,101284.28
2018-11-11T14:22:50.551Z,101291.88
2018-11-11T14:25:22.937Z,101288.19
2018-11-11T14:27:51.843Z,101286.01
2018-11-11T14:30:21.941Z,101283.31
2018-11-11T14:32:51.684Z,101286.36
2018-11-11T14:35:20.571Z,101284.52
2018-11-11T14:37:49.685Z,101280.86
2018-11-11T14:40:24.955Z,101272.88
2018-11-11T14:42:54.178Z,101281.34
2018-11-11T14:45:23.465Z,101279.12
2018-11-11T14:47:53.483Z,101275.58
2018-11-11T14:50:22.947Z,101267.87
2018-11-11T14:52:51.887Z,101274.60
2018-11-11T14:55:25.794Z,101274.98
2018-11-11T14:57:54.710Z,101270.19
2018-11-11T15:00:25.009Z,101267.00
2018-11-11T15:03:04.561Z,101272.88
2018-11-11T15:05:33.657Z,101271.53
2018-11-11T15:08:03.303Z,101275.58
2018-11-11T15:10:32.210Z,101270.19
2018-11-11T15:13:01.103Z,101272.02
2018-11-11T15:15:29.902Z,101272.02
2018-11-11T15:17:59.687Z,101264.80
2018-11-11T15:20:28.810Z,101271.53
2018-11-11T15:22:57.513Z,101275.58
2018-11-11T15:25:27.619Z,101273.36
2018-11-11T15:27:56.450Z,101273.87
2018-11-11T15:30:28.262Z,101277.41
2018-11-11T15:32:57.732Z,101276.58
2018-11-11T15:35:26.531Z,101275.23
2018-11-11T15:37:55.294Z,101271.19
2018-11-11T15:40:26.537Z,101277.92
2018-11-11T15:42:55.759Z,101270.33
2018-11-11T15:45:26.891Z,101265.42
2018-11-11T15:47:55.675Z,101281.11
2018-11-11T15:50:26.621Z,101274.37
2018-11-11T15:52:56.754Z,101270.81
2018-11-11T15:55:27.301Z,101271.67
2018-11-11T15:57:56.114Z,101267.25
2018-11-11T16:00:29.120Z,101268.59
2018-11-11T16:02:57.973Z,101267.25
2018-11-11T16:05:26.873Z,101268.59
2018-11-11T16:07:56.505Z,101263.70
2018-11-11T16:10:26.680Z,101261.52
2018-11-11T16:12:55.526Z,101268.26
2018-11-11T16:15:34.080Z,101264.70
2018-11-11T16:18:04.843Z,101258.94
2018-11-11T16:20:33.803Z,101262.62
2018-11-11T16:23:03.632Z,101263.12
2018-11-11T16:25:32.932Z,101251.95
2018-11-11T16:28:01.814Z,101246.08
2018-11-11T16:30:32.034Z,101245.60
2018-11-11T16:33:01.438Z,101241.33
2018-11-11T16:35:30.962Z,101249.89
2018-11-11T16:38:00.418Z,101239.11
2018-11-11T16:40:31.656Z,101240.95
2018-11-11T16:43:00.825Z,101241.43
2018-11-11T16:45:30.522Z,101241.95
2018-11-11T16:47:59.426Z,101244.64
2018-11-11T16:50:30.348Z,101243.89
2018-11-11T16:53:00.855Z,101243.89
2018-11-11T16:55:30.751Z,101248.80
2018-11-11T16:57:59.568Z,101247.10
2018-11-11T17:00:29.696Z,101243.06
2018-11-11T17:02:59.556Z,101248.45
2018-11-11T17:05:30.557Z,101244.52
2018-11-11T17:07:59.399Z,101250.77
2018-11-11T17:10:29.455Z,101249.91
2018-11-11T17:12:59.696Z,101242.79
2018-11-11T17:15:29.894Z,101240.61
2018-11-11T17:17:58.753Z,101250.05
2018-11-11T17:20:28.192Z,101249.66
2018-11-11T17:22:59.431Z,101243.79
2018-11-11T17:25:28.639Z,101248.80
2018-11-11T17:27:57.689Z,101249.80
2018-11-11T17:30:28.586Z,101248.45
2018-11-11T17:32:58.084Z,101245.77
2018-11-11T17:35:26.944Z,101252.12
2018-11-11T17:37:55.791Z,101251.27
2018-11-11T17:40:26.011Z,101256.64
2018-11-11T17:42:56.206Z,101227.80
2018-11-11T17:45:25.117Z,101265.22
2018-11-11T17:47:54.539Z,101262.52
2018-11-11T17:50:24.858Z,101258.13
2018-11-11T17:52:54.069Z,101261.17
2018-11-11T17:55:24.561Z,101254.09
2018-11-11T17:57:53.593Z,101246.98
2018-11-11T18:00:24.152Z,101255.06
2018-11-11T18:02:53.898Z,101250.67
2018-11-11T18:05:24.185Z,101253.37
2018-11-11T18:07:53.145Z,101249.33
2018-11-11T18:10:23.009Z,101255.20
2018-11-11T18:12:52.165Z,101266.46
2018-11-11T18:15:22.889Z,101253.61
2018-11-11T18:17:51.832Z,101250.06
2018-11-11T18:20:23.036Z,101253.61
2018-11-11T18:22:54.730Z,101252.75
2018-11-11T18:25:23.736Z,101254.48
2018-11-11T18:27:52.825Z,101243.33
2018-11-11T18:30:25.656Z,101245.16
2018-11-11T18:32:55.938Z,101247.37
2018-11-11T18:35:25.128Z,101242.95
2018-11-11T18:37:54.226Z,101235.38
2018-11-11T18:40:24.802Z,101247.51
2018-11-11T18:42:54.766Z,101244.81
2018-11-11T18:45:25.155Z,101242.61
2018-11-11T18:47:54.672Z,101236.35
2018-11-11T18:50:25.241Z,101227.79
2018-11-11T18:52:54.972Z,101230.00
2018-11-11T18:55:23.895Z,101226.44
2018-11-11T18:57:52.907Z,101231.94
2018-11-11T19:00:23.196Z,101228.76
2018-11-11T19:02:53.062Z,101232.94
2018-11-11T19:05:22.741Z,101232.94
2018-11-11T19:07:51.919Z,101228.90
2018-11-11T19:10:24.558Z,101229.87
2018-11-11T19:12:55.046Z,101232.56
2018-11-11T19:15:24.312Z,101229.87
2018-11-11T19:17:54.175Z,101239.30
2018-11-11T19:20:24.275Z,101237.57
2018-11-11T19:22:53.202Z,101241.61
2018-11-11T19:25:24.533Z,101238.09
2018-11-11T19:27:54.268Z,101240.78
2018-11-11T19:30:24.449Z,101243.09
2018-11-11T19:32:54.411Z,101243.58
2018-11-11T19:35:23.667Z,101243.96
2018-11-11T19:37:54.463Z,101239.54
2018-11-11T19:40:24.775Z,101238.68
2018-11-11T19:42:54.822Z,101236.50
2018-11-11T19:45:25.234Z,101233.81
2018-11-11T19:47:54.204Z,101240.54
2018-11-11T19:50:24.310Z,101226.70
2018-11-11T19:52:54.159Z,101228.53
2018-11-11T19:55:23.425Z,101228.05
2018-11-11T19:57:52.369Z,101226.31
2018-11-11T20:00:24.402Z,101226.31
2018-11-11T20:02:54.890Z,101219.59
2018-11-11T20:05:24.054Z,101220.94
2018-11-11T20:07:54.374Z,101217.03
2018-11-11T20:10:24.330Z,101217.41
2018-11-11T20:12:53.349Z,101207.98
2018-11-11T20:15:25.841Z,101213.37
2018-11-11T20:17:54.839Z,101209.81
2018-11-11T20:20:25.284Z,101208.09
2018-11-11T20:22:54.192Z,101208.09
2018-11-11T20:25:23.429Z,101209.44
2018-11-11T20:27:52.346Z,101209.44
2018-11-11T20:30:22.654Z,101207.23
2018-11-11T20:32:51.848Z,101202.36
2018-11-11T20:35:22.200Z,101213.13
2018-11-11T20:37:51.183Z,101211.27
2018-11-11T20:40:21.448Z,101205.53
2018-11-11T20:42:50.915Z,101207.37
2018-11-11T20:45:21.285Z,101206.40
2018-11-11T20:47:50.841Z,101207.37
2018-11-11T20:50:22.078Z,101209.58
2018-11-11T20:52:52.653Z,101210.06
2018-11-11T20:55:22.105Z,101206.02
2018-11-11T20:57:51.049Z,101211.41
2018-11-11T21:00:22.536Z,101206.99
2018-11-11T21:02:51.625Z,101210.55
2018-11-11T21:05:22.248Z,101210.06
2018-11-11T21:07:51.208Z,101208.86
2018-11-11T21:10:21.470Z,101209.20
2018-11-11T21:12:50.465Z,101206.88
2018-11-11T21:15:20.633Z,101197.94
2018-11-11T21:17:49.775Z,101199.29
2018-11-11T21:20:20.166Z,101199.29
2018-11-11T21:22:49.131Z,101203.70
2018-11-11T21:25:18.074Z,101201.84
2018-11-11T21:27:47.993Z,101202.22
2018-11-11T21:30:19.363Z,101198.56
2018-11-11T21:32:48.558Z,101199.39
2018-11-11T21:35:17.619Z,101199.77
2018-11-11T21:37:46.970Z,101193.41
2018-11-11T21:40:20.728Z,101191.20
2018-11-11T21:42:50.716Z,101189.37
2018-11-11T21:45:20.960Z,101184.33
2018-11-11T21:47:50.002Z,101185.67
2018-11-11T21:50:21.097Z,101187.40
2018-11-11T21:53:09.870Z,101188.26
2018-11-11T21:55:38.752Z,101185.05
2018-11-11T21:58:07.644Z,101177.83
2018-11-11T22:00:36.655Z,101176.86
2018-11-11T22:03:06.746Z,101172.33
2018-11-11T22:05:35.647Z,101170.84
2018-11-11T22:08:04.584Z,101167.67
2018-11-11T22:10:33.424Z,101169.02
2018-11-11T22:13:02.319Z,101168.39
2018-11-11T22:15:31.217Z,101164.48
2018-11-11T22:17:59.988Z,101159.45
2018-11-11T22:20:28.880Z,101157.27
2018-11-11T22:22:57.687Z,101160.31
2018-11-11T22:25:27.133Z,101161.17
2018-11-11T22:27:55.983Z,101155.78
2018-11-11T22:30:24.841Z,101153.58
2018-11-11T22:32:54.074Z,101151.74
2018-11-11T22:35:22.939Z,101149.67
2018-11-11T22:37:51.926Z,101153.23
2018-11-11T22:40:20.893Z,101153.23
2018-11-11T22:42:49.755Z,101153.23
2018-11-11T22:45:18.540Z,101145.63
2018-11-11T22:47:47.398Z,101144.28
2018-11-11T22:50:17.954Z,101141.94
2018-11-11T22:52:46.894Z,101138.42
2018-11-11T22:55:15.777Z,101142.45
2018-11-11T22:57:44.873Z,101139.77
2018-11-11T23:00:20.505Z,101135.20
2018-11-11T23:02:49.640Z,101133.03
2018-11-11T23:05:19.535Z,101134.00
2018-11-11T23:07:48.451Z,101139.24
2018-11-11T23:10:17.332Z,101134.00
2018-11-11T23:12:46.178Z,101136.20
2018-11-11T23:15:16.342Z,101130.93
2018-11-11T23:17:45.151Z,101130.44
2018-11-11T23:20:15.530Z,101142.08
2018-11-11T23:22:44.369Z,101129.23
2018-11-11T23:25:14.548Z,101123.85
2018-11-11T23:27:43.389Z,101117.12
2018-11-11T23:30:15.007Z,101112.70
2018-11-11T23:32:44.154Z,101116.75
2018-11-11T23:36:17.018Z,101119.92
2018-11-11T23:38:46.720Z,101109.29
2018-11-11T23:41:15.585Z,101112.09
2018-11-11T23:43:44.346Z,101115.30
2018-11-11T23:46:13.115Z,101111.27
2018-11-11T23:48:41.953Z,101110.41
2018-11-11T23:51:10.876Z,101111.27
2018-11-11T23:53:39.657Z,101112.61
2018-11-11T23:56:08.430Z,101112.61
2018-11-11T23:58:37.332Z,101110.75
